Aviation Digital Data Service (ADDS)

Output produced by METARs form (0529 UTC 19 March 2019)
found at http://www.aviationweather.gov/metar/data/
 
Forecast for: LIPQ (RONCHI LEGIONARI, IT)
Text: TAF LIPQ 190500Z 1906/2006 03008KT 9999 SCT020 BKN040
Forecast period: 0600 UTC 19 March 2019 to 0600 UTC 20 March 2019
Forecast type: FROM: standard forecast or significant change
Winds: from the NNE (30 degrees) at 9 MPH (8 knots; 4.1 m/s)
Visibility: 6 or more miles 10+ km)
Ceiling: 4000 feet AGL
Clouds: scattered clouds at 2000 feet AGL
broken clouds at 4000 feet AGL
Weather: no significant weather forecast for this period